ADDS METAR Data INFO
IDs: Format: Raw Decoded Include TAF

Data at: 0932 UTC 19 Aug 2017

METAR for:KRYW (Lago Vista/Allen Arp, TX, US)
Text:KRYW 190915Z AUTO 21006KT 10SM CLR 26/21 A3003 RMK AO2 T02570210
Temperature: 25.7°C ( 78°F)
Dewpoint: 21.0°C ( 70°F) [RH = 75%]
Pressure (altimeter):30.03 inches Hg (1017.0 mb)
Winds:from the SSW (210 degrees) at 7 MPH (6 knots; 3.1 m/s)
Visibility:10 or more sm (16+ km)
Ceiling:at least 12,000 feet AGL
Clouds:sky clear below 12,000 feet AGL
QC Flag:automated observation with no human augmentation